Terminal Aerodrome Forecast
Issued by NWS

Home | Current Version | Previous Version | Text Only | Print | Product List | Glossary On
Versions: 1 2 3 4 5 6 7 8 9 10 11 12 13 14 15
064
FTUS41 KBTV 241017 AAA
TAFSLK
TAF AMD
KSLK 241017Z 2410/2506 06006KT 4SM SHRA BR BKN008 OVC035
     FM241400 12008KT 3SM +SHRA BR SCT012 OVC025
     FM241900 13009G15KT 3SM -SHRA BR BKN018 OVC035
     FM242300 12007KT 3SM -SHRA BR OVC020
     FM250500 11005KT 1 1/2SM -SHRA BR OVC012=

USA.gov is the U.S. government's official web portal to all federal, state and local government web resources and services.